Ogden Hinckley Airport
KOGD : now visible

Airfield :











YOU CAN JOIN US ON...

 
LOGIN :

Register | Disclaimer

   EN    FR    IT 

 









Legend :    VFR   Marginal VFR   IFR   Intensive IFR   Very Intensive IFR
Visi :
Ceiling :
>= 8 km
>= 3000ft
5 to 8 km
1000 to 3000 ft
1500m to 5 km
500 to 1000 ft
800 to 1500m
200 to 500 ft
< 800m
< 200 ft
Symbols :   Thunderstorms  Fog  Heavy snow  Heavy precipitations  Wind > 20 kt






- Airport Elevation : 4473 ft


KOGD - Ogden Hinckley

CURRENT METAR :
  • 121817Z 17010KT 5SM -RA BKN026 OVC031 04/00 A3015 RMK AO2 P0002 T00390000

EXPIRED METARs :
  • 121753Z 17010KT 10SM -RA OVC038 04/01 A3015 RMK AO2 RAB27 SLP213 P0000 60003 T00440006 10044 20022 50000
  • 121653Z 17013KT 10SM OVC034 04/00 A3016 RMK AO2 RAB27E40 SLP215 P0001 T00440000
  • 121553Z 15007KT 10SM SCT047 BKN055 OVC070 04/00 A3015 RMK AO2 RAB05E28 SLP214 P0000 T00390000

TAF KOGD
Valid from the 12 at 18:00 until the 13 at 18:00 UTC


121720Z 1218/1318 17008KT 5SM -RA BR SCT005 BKN025 OVC050
FM130000 18005KT 5SM -SHRASN OVC015
FM131000 VRB04KT 4SM -SHSN BR OVC012



MET'MAP, your aeronautical weather chart ! - Copyright ORBIFLY December 2007 - Disclaimer

ORBIFLY MET'MAP TEAM :

Programming & Development : Alexandra Zaïnal
Concept & original design : Baudouin d'Aumeries
Assistance for programming : Marc-Olivier Méhu
Technical & hardware support : Manuel Goepfert

Contact : metmap@orbifly.com




SOURCES & CREDITS :

   NOAA       Earth
Advisory